sensor_id;sensor_type;location;lat;lon;timestamp;pressure;altitude;pressure_sealevel;temperature;humidity
74561;BME280;62979;55.720;37.606;2022-12-19T00:05:38;100807.06;;;-8.23;67.09
74561;BME280;62979;55.720;37.606;2022-12-19T00:08:06;100814.50;;;-8.12;66.67
74561;BME280;62979;55.720;37.606;2022-12-19T00:11:10;100804.47;;;-8.11;66.21
74561;BME280;62979;55.720;37.606;2022-12-19T00:24:37;100797.53;;;-8.13;66.42
74561;BME280;62979;55.720;37.606;2022-12-19T00:27:04;100799.53;;;-8.09;65.91
74561;BME280;62979;55.720;37.606;2022-12-19T00:29:31;100803.38;;;-7.89;65.09
74561;BME280;62979;55.720;37.606;2022-12-19T00:32:00;100816.16;;;-7.88;65.78
74561;BME280;62979;55.720;37.606;2022-12-19T00:34:26;100807.59;;;-7.90;65.31
74561;BME280;62979;55.720;37.606;2022-12-19T00:36:53;100808.94;;;-7.57;65.65
74561;BME280;62979;55.720;37.606;2022-12-19T00:39:20;100807.09;;;-7.46;64.84
74561;BME280;62979;55.720;37.606;2022-12-19T00:41:47;100806.91;;;-7.22;64.71
74561;BME280;62979;55.720;37.606;2022-12-19T00:44:14;100818.66;;;-6.98;64.34
74561;BME280;62979;55.720;37.606;2022-12-19T00:46:41;100804.84;;;-6.88;63.81
74561;BME280;62979;55.720;37.606;2022-12-19T00:49:11;100796.81;;;-6.81;63.56
74561;BME280;62979;55.720;37.606;2022-12-19T00:51:38;100800.06;;;-6.83;63.77
74561;BME280;62979;55.720;37.606;2022-12-19T00:54:05;100808.47;;;-6.98;64.38
74561;BME280;62979;55.720;37.606;2022-12-19T00:56:33;100801.44;;;-6.89;64.70
74561;BME280;62979;55.720;37.606;2022-12-19T00:59:01;100796.81;;;-6.81;64.57
74561;BME280;62979;55.720;37.606;2022-12-19T01:01:30;100798.59;;;-6.80;64.69
74561;BME280;62979;55.720;37.606;2022-12-19T01:03:59;100799.09;;;-6.85;65.00
74561;BME280;62979;55.720;37.606;2022-12-19T01:06:29;100798.22;;;-6.73;64.65
74561;BME280;62979;55.720;37.606;2022-12-19T01:08:56;100783.41;;;-6.65;64.63
74561;BME280;62979;55.720;37.606;2022-12-19T01:11:23;100802.06;;;-6.51;64.59
74561;BME280;62979;55.720;37.606;2022-12-19T01:14:04;100792.38;;;-6.57;64.46
74561;BME280;62979;55.720;37.606;2022-12-19T01:16:31;100786.94;;;-6.63;65.05
74561;BME280;62979;55.720;37.606;2022-12-19T01:18:58;100789.47;;;-6.63;64.86
74561;BME280;62979;55.720;37.606;2022-12-19T01:21:25;100786.03;;;-6.63;65.21
74561;BME280;62979;55.720;37.606;2022-12-19T01:23:53;100799.25;;;-6.56;65.01
74561;BME280;62979;55.720;37.606;2022-12-19T01:26:20;100797.19;;;-6.48;65.11
74561;BME280;62979;55.720;37.606;2022-12-19T01:28:47;100800.81;;;-6.58;65.55
74561;BME280;62979;55.720;37.606;2022-12-19T01:31:14;100790.78;;;-6.96;66.85
74561;BME280;62979;55.720;37.606;2022-12-19T01:33:41;100788.91;;;-6.85;67.30
74561;BME280;62979;55.720;37.606;2022-12-19T01:36:08;100799.09;;;-6.72;66.59
74561;BME280;62979;55.720;37.606;2022-12-19T01:38:36;100790.09;;;-6.94;66.98
74561;BME280;62979;55.720;37.606;2022-12-19T01:41:04;100790.28;;;-6.91;67.62
74561;BME280;62979;55.720;37.606;2022-12-19T01:43:52;100788.09;;;-6.71;66.89
74561;BME280;62979;55.720;37.606;2022-12-19T01:46:25;100792.91;;;-6.62;66.64
74561;BME280;62979;55.720;37.606;2022-12-19T01:48:55;100791.44;;;-6.72;67.13
74561;BME280;62979;55.720;37.606;2022-12-19T01:51:24;100789.50;;;-7.03;68.24
74561;BME280;62979;55.720;37.606;2022-12-19T01:54:03;100789.34;;;-7.06;68.26
74561;BME280;62979;55.720;37.606;2022-12-19T01:56:37;100799.88;;;-7.13;68.84
74561;BME280;62979;55.720;37.606;2022-12-19T01:59:09;100793.22;;;-6.98;68.27
74561;BME280;62979;55.720;37.606;2022-12-19T02:01:42;100789.91;;;-6.97;68.17
74561;BME280;62979;55.720;37.606;2022-12-19T02:04:12;100793.63;;;-6.92;68.27
74561;BME280;62979;55.720;37.606;2022-12-19T02:06:40;100791.47;;;-6.99;68.28
74561;BME280;62979;55.720;37.606;2022-12-19T02:09:08;100783.44;;;-6.78;68.54
74561;BME280;62979;55.720;37.606;2022-12-19T02:11:38;100784.81;;;-6.70;68.21
74561;BME280;62979;55.720;37.606;2022-12-19T02:14:05;100780.38;;;-6.59;67.82
74561;BME280;62979;55.720;37.606;2022-12-19T02:16:40;100776.72;;;-6.50;67.76
74561;BME280;62979;55.720;37.606;2022-12-19T02:22:36;100768.09;;;-6.38;67.58
74561;BME280;62979;55.720;37.606;2022-12-19T02:25:36;100763.34;;;-6.32;67.48
74561;BME280;62979;55.720;37.606;2022-12-19T02:28:40;100766.69;;;-6.33;67.32
74561;BME280;62979;55.720;37.606;2022-12-19T02:31:28;100749.47;;;-6.37;67.51
74561;BME280;62979;55.720;37.606;2022-12-19T02:34:02;100761.47;;;-6.21;67.25
74561;BME280;62979;55.720;37.606;2022-12-19T02:36:40;100759.78;;;-6.21;67.31
74561;BME280;62979;55.720;37.606;2022-12-19T02:39:17;100762.50;;;-6.18;67.04
74561;BME280;62979;55.720;37.606;2022-12-19T02:41:55;100749.53;;;-6.08;67.07
74561;BME280;62979;55.720;37.606;2022-12-19T02:44:26;100739.88;;;-5.98;67.20
74561;BME280;62979;55.720;37.606;2022-12-19T02:46:59;100731.25;;;-5.86;66.94
74561;BME280;62979;55.720;37.606;2022-12-19T02:49:29;100726.53;;;-5.79;67.61
74561;BME280;62979;55.720;37.606;2022-12-19T02:52:08;100711.84;;;-5.84;67.23
74561;BME280;62979;55.720;37.606;2022-12-19T02:54:35;100725.44;;;-5.68;67.09
74561;BME280;62979;55.720;37.606;2022-12-19T02:57:09;100724.41;;;-5.72;67.62
74561;BME280;62979;55.720;37.606;2022-12-19T02:59:52;100714.81;;;-5.76;67.42
74561;BME280;62979;55.720;37.606;2022-12-19T03:02:34;100732.66;;;-5.76;67.80
74561;BME280;62979;55.720;37.606;2022-12-19T03:05:13;100714.94;;;-5.74;67.49
74561;BME280;62979;55.720;37.606;2022-12-19T03:07:51;100706.16;;;-5.79;67.65
74561;BME280;62979;55.720;37.606;2022-12-19T03:10:28;100724.94;;;-5.63;67.60
74561;BME280;62979;55.720;37.606;2022-12-19T03:13:07;100713.50;;;-5.54;67.80
74561;BME280;62979;55.720;37.606;2022-12-19T03:15:38;100722.66;;;-5.43;67.11
74561;BME280;62979;55.720;37.606;2022-12-19T03:18:07;100714.03;;;-5.45;67.58
74561;BME280;62979;55.720;37.606;2022-12-19T03:20:41;100705.94;;;-5.38;67.53
74561;BME280;62979;55.720;37.606;2022-12-19T03:23:13;100689.94;;;-5.35;67.46
74561;BME280;62979;55.720;37.606;2022-12-19T03:25:43;100692.81;;;-5.29;66.86
74561;BME280;62979;55.720;37.606;2022-12-19T03:28:20;100700.41;;;-5.14;67.23
74561;BME280;62979;55.720;37.606;2022-12-19T03:30:53;100707.44;;;-5.10;67.08
74561;BME280;62979;55.720;37.606;2022-12-19T03:33:26;100708.16;;;-5.13;67.79
74561;BME280;62979;55.720;37.606;2022-12-19T03:35:58;100704.63;;;-5.15;67.17
74561;BME280;62979;55.720;37.606;2022-12-19T03:38:30;100699.53;;;-5.15;66.71
74561;BME280;62979;55.720;37.606;2022-12-19T03:41:00;100695.00;;;-5.21;67.01
74561;BME280;62979;55.720;37.606;2022-12-19T03:43:31;100694.53;;;-5.13;66.84
74561;BME280;62979;55.720;37.606;2022-12-19T03:46:01;100696.88;;;-5.02;66.89
74561;BME280;62979;55.720;37.606;2022-12-19T03:48:39;100695.03;;;-4.88;66.41
74561;BME280;62979;55.720;37.606;2022-12-19T03:51:19;100683.00;;;-4.90;65.93
74561;BME280;62979;55.720;37.606;2022-12-19T03:53:58;100678.31;;;-4.99;67.27
74561;BME280;62979;55.720;37.606;2022-12-19T03:56:38;100665.94;;;-4.91;66.35
74561;BME280;62979;55.720;37.606;2022-12-19T03:59:16;100673.38;;;-4.80;66.30
74561;BME280;62979;55.720;37.606;2022-12-19T04:01:48;100661.66;;;-4.76;65.76
74561;BME280;62979;55.720;37.606;2022-12-19T04:04:20;100664.91;;;-4.79;65.66
74561;BME280;62979;55.720;37.606;2022-12-19T04:06:50;100657.50;;;-4.74;66.37
74561;BME280;62979;55.720;37.606;2022-12-19T04:09:20;100676.44;;;-4.70;66.47
74561;BME280;62979;55.720;37.606;2022-12-19T04:11:52;100678.47;;;-4.96;65.97
74561;BME280;62979;55.720;37.606;2022-12-19T04:14:25;100680.19;;;-5.11;66.22
74561;BME280;62979;55.720;37.606;2022-12-19T04:17:01;100688.47;;;-5.16;66.79
74561;BME280;62979;55.720;37.606;2022-12-19T04:19:57;100678.25;;;-5.16;66.69
74561;BME280;62979;55.720;37.606;2022-12-19T04:22:31;100663.31;;;-5.09;66.74
74561;BME280;62979;55.720;37.606;2022-12-19T04:25:04;100651.84;;;-5.01;66.58
74561;BME280;62979;55.720;37.606;2022-12-19T04:27:36;100649.84;;;-4.90;66.04
74561;BME280;62979;55.720;37.606;2022-12-19T04:30:06;100647.38;;;-4.89;65.80
74561;BME280;62979;55.720;37.606;2022-12-19T04:32:39;100661.28;;;-5.15;65.79
74561;BME280;62979;55.720;37.606;2022-12-19T04:35:13;100650.69;;;-5.23;66.57
74561;BME280;62979;55.720;37.606;2022-12-19T04:37:40;100660.00;;;-5.23;66.82
74561;BME280;62979;55.720;37.606;2022-12-19T04:40:09;100672.44;;;-5.44;66.88
74561;BME280;62979;55.720;37.606;2022-12-19T04:42:37;100673.94;;;-5.33;66.91
74561;BME280;62979;55.720;37.606;2022-12-19T04:45:05;100671.69;;;-5.27;66.92
74561;BME280;62979;55.720;37.606;2022-12-19T04:47:32;100661.84;;;-5.21;66.70
74561;BME280;62979;55.720;37.606;2022-12-19T04:49:59;100680.03;;;-4.98;66.67
74561;BME280;62979;55.720;37.606;2022-12-19T04:52:28;100671.78;;;-5.25;66.86
74561;BME280;62979;55.720;37.606;2022-12-19T04:54:54;100686.72;;;-5.17;67.27
74561;BME280;62979;55.720;37.606;2022-12-19T04:57:21;100679.06;;;-5.17;67.69
74561;BME280;62979;55.720;37.606;2022-12-19T04:59:48;100670.53;;;-5.17;68.19
74561;BME280;62979;55.720;37.606;2022-12-19T05:02:15;100677.00;;;-5.07;67.41
74561;BME280;62979;55.720;37.606;2022-12-19T05:04:42;100661.06;;;-5.03;67.37
74561;BME280;62979;55.720;37.606;2022-12-19T05:07:09;100641.28;;;-5.07;67.43
74561;BME280;62979;55.720;37.606;2022-12-19T05:09:37;100667.63;;;-4.92;67.10
74561;BME280;62979;55.720;37.606;2022-12-19T05:12:05;100673.66;;;-5.06;67.78
74561;BME280;62979;55.720;37.606;2022-12-19T05:14:32;100678.78;;;-5.06;67.82
74561;BME280;62979;55.720;37.606;2022-12-19T05:16:59;100668.72;;;-5.03;67.33
74561;BME280;62979;55.720;37.606;2022-12-19T05:19:26;100656.84;;;-5.19;68.33
74561;BME280;62979;55.720;37.606;2022-12-19T05:21:53;100661.53;;;-5.10;67.68
74561;BME280;62979;55.720;37.606;2022-12-19T05:24:20;100670.03;;;-5.26;68.46
74561;BME280;62979;55.720;37.606;2022-12-19T05:26:49;100673.75;;;-5.36;69.05
74561;BME280;62979;55.720;37.606;2022-12-19T05:29:16;100675.16;;;-5.26;68.42
74561;BME280;62979;55.720;37.606;2022-12-19T05:31:43;100657.88;;;-5.16;68.54
74561;BME280;62979;55.720;37.606;2022-12-19T05:34:10;100659.94;;;-5.08;68.03
74561;BME280;62979;55.720;37.606;2022-12-19T05:36:37;100657.25;;;-4.95;68.30
74561;BME280;62979;55.720;37.606;2022-12-19T05:39:04;100661.88;;;-4.88;67.73
74561;BME280;62979;55.720;37.606;2022-12-19T05:41:31;100648.56;;;-4.99;68.38
74561;BME280;62979;55.720;37.606;2022-12-19T05:43:59;100654.56;;;-4.82;68.13
74561;BME280;62979;55.720;37.606;2022-12-19T05:46:26;100675.22;;;-4.77;67.69
74561;BME280;62979;55.720;37.606;2022-12-19T05:48:53;100678.78;;;-4.74;68.79
74561;BME280;62979;55.720;37.606;2022-12-19T05:51:21;100671.84;;;-4.76;68.23
74561;BME280;62979;55.720;37.606;2022-12-19T05:53:48;100669.88;;;-4.82;67.73
74561;BME280;62979;55.720;37.606;2022-12-19T05:56:16;100666.44;;;-4.82;67.86
74561;BME280;62979;55.720;37.606;2022-12-19T05:58:45;100658.13;;;-4.78;68.01
74561;BME280;62979;55.720;37.606;2022-12-19T06:01:16;100661.91;;;-4.71;67.50
74561;BME280;62979;55.720;37.606;2022-12-19T06:03:45;100651.28;;;-4.79;67.77
74561;BME280;62979;55.720;37.606;2022-12-19T06:06:14;100659.66;;;-4.82;67.63
74561;BME280;62979;55.720;37.606;2022-12-19T06:08:42;100644.97;;;-4.86;68.39
74561;BME280;62979;55.720;37.606;2022-12-19T06:11:10;100653.66;;;-4.66;67.66
74561;BME280;62979;55.720;37.606;2022-12-19T06:13:38;100657.19;;;-4.64;67.72
74561;BME280;62979;55.720;37.606;2022-12-19T06:16:07;100661.97;;;-4.86;68.69
74561;BME280;62979;55.720;37.606;2022-12-19T06:18:40;100664.91;;;-4.79;68.69
74561;BME280;62979;55.720;37.606;2022-12-19T06:21:11;100661.81;;;-4.73;68.30
74561;BME280;62979;55.720;37.606;2022-12-19T06:23:40;100664.16;;;-4.78;67.90
74561;BME280;62979;55.720;37.606;2022-12-19T06:26:10;100676.91;;;-4.78;68.39
74561;BME280;62979;55.720;37.606;2022-12-19T06:28:38;100671.69;;;-4.96;68.83
74561;BME280;62979;55.720;37.606;2022-12-19T06:31:06;100650.97;;;-4.85;68.34
74561;BME280;62979;55.720;37.606;2022-12-19T06:33:33;100678.34;;;-4.83;68.15
74561;BME280;62979;55.720;37.606;2022-12-19T06:36:04;100670.97;;;-4.77;67.80
74561;BME280;62979;55.720;37.606;2022-12-19T06:38:33;100652.13;;;-4.95;68.48
74561;BME280;62979;55.720;37.606;2022-12-19T06:41:02;100659.13;;;-4.92;68.73
74561;BME280;62979;55.720;37.606;2022-12-19T06:43:47;100670.28;;;-4.74;68.62
74561;BME280;62979;55.720;37.606;2022-12-19T06:46:14;100664.78;;;-4.65;68.03
74561;BME280;62979;55.720;37.606;2022-12-19T06:48:41;100667.78;;;-4.56;67.92
74561;BME280;62979;55.720;37.606;2022-12-19T06:51:09;100673.16;;;-4.68;68.14
74561;BME280;62979;55.720;37.606;2022-12-19T06:53:36;100676.44;;;-4.70;68.46
74561;BME280;62979;55.720;37.606;2022-12-19T06:56:03;100671.94;;;-4.75;68.73
74561;BME280;62979;55.720;37.606;2022-12-19T06:58:31;100659.50;;;-4.85;68.84
74561;BME280;62979;55.720;37.606;2022-12-19T07:00:59;100684.09;;;-4.70;68.57
74561;BME280;62979;55.720;37.606;2022-12-19T07:03:29;100658.00;;;-4.65;68.72
74561;BME280;62979;55.720;37.606;2022-12-19T07:06:01;100651.34;;;-4.61;68.28
74561;BME280;62979;55.720;37.606;2022-12-19T07:08:30;100655.50;;;-4.63;69.04
74561;BME280;62979;55.720;37.606;2022-12-19T07:10:57;100650.41;;;-4.47;68.86
74561;BME280;62979;55.720;37.606;2022-12-19T07:13:25;100631.25;;;-4.39;68.28
74561;BME280;62979;55.720;37.606;2022-12-19T07:15:53;100642.28;;;-4.22;67.88
74561;BME280;62979;55.720;37.606;2022-12-19T07:18:28;100647.41;;;-4.22;67.80
74561;BME280;62979;55.720;37.606;2022-12-19T07:20:58;100641.91;;;-4.30;67.85
74561;BME280;62979;55.720;37.606;2022-12-19T07:23:26;100652.22;;;-4.28;68.48
74561;BME280;62979;55.720;37.606;2022-12-19T07:25:56;100654.78;;;-4.28;68.70
74561;BME280;62979;55.720;37.606;2022-12-19T07:28:23;100631.69;;;-4.30;68.17
74561;BME280;62979;55.720;37.606;2022-12-19T07:30:50;100647.19;;;-4.26;68.34
74561;BME280;62979;55.720;37.606;2022-12-19T07:33:17;100661.38;;;-4.15;68.20
74561;BME280;62979;55.720;37.606;2022-12-19T07:35:44;100662.03;;;-4.19;68.59
74561;BME280;62979;55.720;37.606;2022-12-19T07:38:11;100656.69;;;-4.24;68.69
74561;BME280;62979;55.720;37.606;2022-12-19T07:40:38;100685.88;;;-4.19;68.55
74561;BME280;62979;55.720;37.606;2022-12-19T07:43:06;100681.50;;;-4.21;68.23
74561;BME280;62979;55.720;37.606;2022-12-19T07:45:36;100683.44;;;-4.34;68.87
74561;BME280;62979;55.720;37.606;2022-12-19T07:48:05;100674.31;;;-4.28;69.54
74561;BME280;62979;55.720;37.606;2022-12-19T07:50:32;100685.56;;;-4.25;68.69
74561;BME280;62979;55.720;37.606;2022-12-19T07:53:00;100686.59;;;-4.21;68.65
74561;BME280;62979;55.720;37.606;2022-12-19T07:55:27;100674.81;;;-4.36;69.50
74561;BME280;62979;55.720;37.606;2022-12-19T07:57:54;100679.91;;;-4.36;69.92
74561;BME280;62979;55.720;37.606;2022-12-19T08:00:22;100663.16;;;-4.47;70.32
74561;BME280;62979;55.720;37.606;2022-12-19T08:02:49;100672.56;;;-4.30;69.68
74561;BME280;62979;55.720;37.606;2022-12-19T08:05:17;100659.00;;;-4.28;69.26
74561;BME280;62979;55.720;37.606;2022-12-19T08:07:44;100668.66;;;-4.23;69.54
74561;BME280;62979;55.720;37.606;2022-12-19T08:10:10;100642.69;;;-4.14;69.38
74561;BME280;62979;55.720;37.606;2022-12-19T08:12:39;100662.63;;;-4.07;69.54
74561;BME280;62979;55.720;37.606;2022-12-19T08:15:06;100660.72;;;-4.11;71.33
74561;BME280;62979;55.720;37.606;2022-12-19T08:17:35;100665.75;;;-4.13;70.87
74561;BME280;62979;55.720;37.606;2022-12-19T08:20:04;100651.00;;;-4.18;70.23
74561;BME280;62979;55.720;37.606;2022-12-19T08:22:31;100664.72;;;-4.16;69.77
74561;BME280;62979;55.720;37.606;2022-12-19T08:24:58;100635.69;;;-4.18;69.75
74561;BME280;62979;55.720;37.606;2022-12-19T08:27:26;100645.66;;;-3.89;69.73
74561;BME280;62979;55.720;37.606;2022-12-19T08:29:52;100662.56;;;-3.91;69.78
74561;BME280;62979;55.720;37.606;2022-12-19T08:32:19;100651.63;;;-3.88;69.94
74561;BME280;62979;55.720;37.606;2022-12-19T08:34:48;100643.22;;;-3.85;69.48
74561;BME280;62979;55.720;37.606;2022-12-19T08:37:16;100640.34;;;-3.75;69.37
74561;BME280;62979;55.720;37.606;2022-12-19T08:39:43;100639.66;;;-3.71;69.90
74561;BME280;62979;55.720;37.606;2022-12-19T08:42:10;100647.56;;;-3.67;69.02
74561;BME280;62979;55.720;37.606;2022-12-19T08:44:37;100652.66;;;-3.67;69.44
74561;BME280;62979;55.720;37.606;2022-12-19T08:47:04;100646.03;;;-3.63;69.40
74561;BME280;62979;55.720;37.606;2022-12-19T08:49:31;100649.50;;;-3.61;69.10
74561;BME280;62979;55.720;37.606;2022-12-19T08:51:59;100640.41;;;-3.74;69.48
74561;BME280;62979;55.720;37.606;2022-12-19T08:54:26;100638.88;;;-3.70;69.79
74561;BME280;62979;55.720;37.606;2022-12-19T08:56:53;100650.84;;;-3.69;70.23
74561;BME280;62979;55.720;37.606;2022-12-19T08:59:20;100644.63;;;-3.56;70.18
74561;BME280;62979;55.720;37.606;2022-12-19T09:01:47;100649.59;;;-3.41;69.96
74561;BME280;62979;55.720;37.606;2022-12-19T09:04:13;100642.97;;;-3.56;69.52
74561;BME280;62979;55.720;37.606;2022-12-19T09:06:40;100642.88;;;-3.57;69.98
74561;BME280;62979;55.720;37.606;2022-12-19T09:09:09;100636.09;;;-3.57;70.61
74561;BME280;62979;55.720;37.606;2022-12-19T09:11:36;100635.50;;;-3.69;70.24
74561;BME280;62979;55.720;37.606;2022-12-19T09:14:03;100634.72;;;-3.68;69.77
74561;BME280;62979;55.720;37.606;2022-12-19T09:16:30;100644.34;;;-3.62;69.65
74561;BME280;62979;55.720;37.606;2022-12-19T09:18:57;100642.94;;;-3.74;70.65
74561;BME280;62979;55.720;37.606;2022-12-19T09:21:25;100642.91;;;-3.75;70.58
74561;BME280;62979;55.720;37.606;2022-12-19T09:23:55;100631.34;;;-3.67;70.92
74561;BME280;62979;55.720;37.606;2022-12-19T09:26:26;100644.13;;;-3.67;70.98
74561;BME280;62979;55.720;37.606;2022-12-19T09:28:53;100647.41;;;-3.52;70.75
74561;BME280;62979;55.720;37.606;2022-12-19T09:31:21;100628.41;;;-3.57;70.74
74561;BME280;62979;55.720;37.606;2022-12-19T09:33:50;100634.34;;;-3.58;70.74
74561;BME280;62979;55.720;37.606;2022-12-19T09:36:20;100638.19;;;-3.66;71.11
74561;BME280;62979;55.720;37.606;2022-12-19T09:38:49;100631.50;;;-3.64;70.90
74561;BME280;62979;55.720;37.606;2022-12-19T09:41:35;100628.47;;;-3.73;71.24
74561;BME280;62979;55.720;37.606;2022-12-19T09:44:26;100628.19;;;-3.61;71.20
74561;BME280;62979;55.720;37.606;2022-12-19T09:47:09;100634.78;;;-3.49;70.90
74561;BME280;62979;55.720;37.606;2022-12-19T09:49:43;100643.97;;;-3.52;70.21
74561;BME280;62979;55.720;37.606;2022-12-19T09:52:14;100644.41;;;-3.61;71.60
74561;BME280;62979;55.720;37.606;2022-12-19T09:54:47;100623.53;;;-3.70;71.84
74561;BME280;62979;55.720;37.606;2022-12-19T09:57:31;100630.09;;;-3.57;71.91
74561;BME280;62979;55.720;37.606;2022-12-19T10:00:09;100631.19;;;-3.52;71.43
74561;BME280;62979;55.720;37.606;2022-12-19T10:02:43;100642.75;;;-3.60;72.75
74561;BME280;62979;55.720;37.606;2022-12-19T10:05:17;100640.47;;;-3.72;72.73
74561;BME280;62979;55.720;37.606;2022-12-19T10:07:52;100622.44;;;-3.75;72.57
74561;BME280;62979;55.720;37.606;2022-12-19T10:10:25;100639.66;;;-3.71;72.93
74561;BME280;62979;55.720;37.606;2022-12-19T10:13:13;100623.75;;;-3.83;72.65
74561;BME280;62979;55.720;37.606;2022-12-19T10:15:54;100622.34;;;-3.59;72.69
74561;BME280;62979;55.720;37.606;2022-12-19T10:18:37;100632.75;;;-3.56;72.53
74561;BME280;62979;55.720;37.606;2022-12-19T10:21:24;100622.88;;;-3.66;72.65
74561;BME280;62979;55.720;37.606;2022-12-19T10:24:17;100639.38;;;-3.77;73.05
74561;BME280;62979;55.720;37.606;2022-12-19T10:26:57;100619.66;;;-3.80;72.99
74561;BME280;62979;55.720;37.606;2022-12-19T10:29:41;100634.91;;;-3.81;74.03
74561;BME280;62979;55.720;37.606;2022-12-19T10:32:23;100619.81;;;-3.77;74.32
74561;BME280;62979;55.720;37.606;2022-12-19T10:34:57;100630.31;;;-3.71;74.07
74561;BME280;62979;55.720;37.606;2022-12-19T10:37:26;100633.53;;;-3.57;73.57
74561;BME280;62979;55.720;37.606;2022-12-19T10:40:02;100636.22;;;-3.54;73.00
74561;BME280;62979;55.720;37.606;2022-12-19T10:42:43;100632.81;;;-3.36;73.10
74561;BME280;62979;55.720;37.606;2022-12-19T10:45:21;100634.25;;;-3.41;72.89
74561;BME280;62979;55.720;37.606;2022-12-19T10:47:58;100623.56;;;-3.33;73.04
74561;BME280;62979;55.720;37.606;2022-12-19T10:50:27;100601.94;;;-3.39;72.68
74561;BME280;62979;55.720;37.606;2022-12-19T10:53:05;100623.88;;;-3.27;72.24
74561;BME280;62979;55.720;37.606;2022-12-19T10:55:41;100640.66;;;-3.14;72.39
74561;BME280;62979;55.720;37.606;2022-12-19T10:58:20;100609.06;;;-3.52;72.55
74561;BME280;62979;55.720;37.606;2022-12-19T11:01:08;100641.28;;;-3.55;73.28
74561;BME280;62979;55.720;37.606;2022-12-19T11:03:39;100640.47;;;-3.36;73.29
74561;BME280;62979;55.720;37.606;2022-12-19T11:06:39;100634.25;;;-3.41;73.16
74561;BME280;62979;55.720;37.606;2022-12-19T11:09:19;100629.28;;;-3.38;72.91
74561;BME280;62979;55.720;37.606;2022-12-19T11:11:56;100618.38;;;-3.34;73.13
74561;BME280;62979;55.720;37.606;2022-12-19T11:14:27;100649.28;;;-3.12;72.62
74561;BME280;62979;55.720;37.606;2022-12-19T11:16:57;100638.66;;;-3.19;72.54
74561;BME280;62979;55.720;37.606;2022-12-19T11:19:28;100652.72;;;-3.11;72.23
74561;BME280;62979;55.720;37.606;2022-12-19T11:21:59;100647.25;;;-3.19;72.94
74561;BME280;62979;55.720;37.606;2022-12-19T11:24:33;100648.53;;;-3.09;72.52
74561;BME280;62979;55.720;37.606;2022-12-19T11:27:28;100630.34;;;-3.15;72.66
74561;BME280;62979;55.720;37.606;2022-12-19T11:29:59;100650.75;;;-3.17;72.96
74561;BME280;62979;55.720;37.606;2022-12-19T11:32:31;100637.00;;;-3.19;72.73
74561;BME280;62979;55.720;37.606;2022-12-19T11:35:00;100658.38;;;-2.99;72.30
74561;BME280;62979;55.720;37.606;2022-12-19T11:37:37;100649.84;;;-2.99;72.04
74561;BME280;62979;55.720;37.606;2022-12-19T11:40:12;100664.50;;;-2.95;71.85
74561;BME280;62979;55.720;37.606;2022-12-19T11:42:48;100664.94;;;-2.86;71.74
74561;BME280;62979;55.720;37.606;2022-12-19T11:45:26;100674.56;;;-2.81;71.50
74561;BME280;62979;55.720;37.606;2022-12-19T11:48:10;100675.25;;;-3.03;72.36
74561;BME280;62979;55.720;37.606;2022-12-19T11:50:53;100664.59;;;-2.94;71.72
74561;BME280;62979;55.720;37.606;2022-12-19T11:53:28;100667.75;;;-2.99;72.36
74561;BME280;62979;55.720;37.606;2022-12-19T11:56:00;100663.84;;;-2.91;72.29
74561;BME280;62979;55.720;37.606;2022-12-19T11:58:32;100661.38;;;-3.08;72.67
74561;BME280;62979;55.720;37.606;2022-12-19T12:01:06;100665.56;;;-3.10;72.78
74561;BME280;62979;55.720;37.606;2022-12-19T12:04:05;100660.50;;;-3.08;72.92
74561;BME280;62979;55.720;37.606;2022-12-19T12:06:53;100666.81;;;-3.19;73.13
74561;BME280;62979;55.720;37.606;2022-12-19T12:09:26;100657.88;;;-3.10;72.70
74561;BME280;62979;55.720;37.606;2022-12-19T12:12:05;100655.91;;;-3.15;72.68
74561;BME280;62979;55.720;37.606;2022-12-19T12:14:59;100662.09;;;-2.92;72.19
74561;BME280;62979;55.720;37.606;2022-12-19T12:17:47;100676.09;;;-3.04;72.28
74561;BME280;62979;55.720;37.606;2022-12-19T12:20:32;100677.03;;;-3.02;72.56
74561;BME280;62979;55.720;37.606;2022-12-19T12:23:22;100683.56;;;-2.89;72.14
74561;BME280;62979;55.720;37.606;2022-12-19T12:25:59;100682.16;;;-3.02;72.70
74561;BME280;62979;55.720;37.606;2022-12-19T12:28:54;100682.03;;;-3.05;72.82
74561;BME280;62979;55.720;37.606;2022-12-19T12:31:45;100676.00;;;-3.05;72.79
74561;BME280;62979;55.720;37.606;2022-12-19T12:34:43;100671.63;;;-3.08;73.04
74561;BME280;62979;55.720;37.606;2022-12-19T12:37:33;100682.28;;;-2.98;72.69
74561;BME280;62979;55.720;37.606;2022-12-19T12:40:26;100690.47;;;-3.06;73.51
74561;BME280;62979;55.720;37.606;2022-12-19T12:43:16;100700.28;;;-2.97;73.11
74561;BME280;62979;55.720;37.606;2022-12-19T12:45:57;100709.44;;;-3.02;72.97
74561;BME280;62979;55.720;37.606;2022-12-19T12:48:26;100693.78;;;-3.08;73.51
74561;BME280;62979;55.720;37.606;2022-12-19T12:51:00;100696.41;;;-3.07;73.47
74561;BME280;62979;55.720;37.606;2022-12-19T12:53:32;100698.50;;;-2.98;73.65
74561;BME280;62979;55.720;37.606;2022-12-19T12:56:03;100675.22;;;-3.22;73.63
74561;BME280;62979;55.720;37.606;2022-12-19T12:59:03;100706.78;;;-3.04;73.87
74561;BME280;62979;55.720;37.606;2022-12-19T13:01:34;100697.81;;;-3.13;74.03
74561;BME280;62979;55.720;37.606;2022-12-19T13:04:17;100721.69;;;-2.95;74.11
74561;BME280;62979;55.720;37.606;2022-12-19T13:07:25;100728.03;;;-2.87;74.13
74561;BME280;62979;55.720;37.606;2022-12-19T13:10:15;100716.53;;;-2.77;73.78
74561;BME280;62979;55.720;37.606;2022-12-19T13:12:54;100722.22;;;-2.65;73.29
74561;BME280;62979;55.720;37.606;2022-12-19T13:15:33;100725.78;;;-2.61;73.33
74561;BME280;62979;55.720;37.606;2022-12-19T13:18:30;100725.50;;;-2.67;73.51
74561;BME280;62979;55.720;37.606;2022-12-19T13:21:01;100716.44;;;-2.61;73.08
74561;BME280;62979;55.720;37.606;2022-12-19T13:23:45;100728.75;;;-2.52;72.86
74561;BME280;62979;55.720;37.606;2022-12-19T13:26:46;100725.63;;;-2.46;72.74
74561;BME280;62979;55.720;37.606;2022-12-19T13:29:37;100734.75;;;-2.51;73.25